No data was retrieved for https://query.yahooapis.com/v1/public/yql?q=select+%2A+from+weather.forecast+where+woeid%3D860853&format=xml&u=c



Visit our other weather sites:

Template documentation
and downloads

And another site



Nearby METAR Reports

   
EBAW - Antwerp
Updated: 21-02-2019 07:20
Mist, Partly Cloudy  
Mist, Partly Cloudy  
   Wind: SSW 3.1 m/s
Wind: SSW 3.1 m/s
Temperature: 7°C
Wind Chill: 5°C
Dew Point: 5°C
Humidity: 87%
Barometer: 1025 hPa
Clouds: Partly Cloudy
Visibility: 5 km
Cloud details: Partly Cloudy
EBAW 210620Z 21006KT 5000 BR NSC 07/05 Q1025 TEMPO 4500 BR
EBLG - Liège
Updated: 21-02-2019 07:20
Partly Cloudy  
Partly Cloudy  
   Wind: SSW 4.1 m/s
Wind: SSW 4.1 m/s
Temperature: 7°C
Wind Chill: 4°C
Dew Point: 4°C
Humidity: 81%
Barometer: 1026 hPa
Clouds: Partly Cloudy
Visibility: 9 km
Cloud details: Partly Cloudy 2300 ft
EBLG 210620Z 20008KT 9000 SCT023 07/04 Q1026 NOSIG
EBCV - Mons/Bergen
Updated: 21-02-2019 07:25
Clear  
Clear  
   Wind: SSW 3.1 m/s
Wind: SSW 3.1 m/s
Temperature: 5°C
Wind Chill: 2°C
Dew Point: 4°C
Humidity: 93%
Barometer: 1026 hPa
Clouds: Clear
Visibility: 6 km
Cloud details: Clear
EBCV 210625Z AUTO 21006KT 6000 NCD 05/04 Q1026 WHT
EHBK - Maastricht
Updated: 21-02-2019 07:25
Partly Cloudy  
Partly Cloudy  
   Wind: South 3.6 m/s
Wind: South 3.6 m/s
Temperature: 6°C
Wind Chill: 3°C
Dew Point: 4°C
Humidity: 87%
Barometer: 1025 hPa
Clouds: Partly Cloudy
Visibility: More than 10 km
Cloud details: Partly Cloudy 3700 ft
EHBK 210625Z AUTO 19007KT 9999 SCT037 06/04 Q1025 NOSIG
ELLX - Luxemburg
Updated: 21-02-2019 07:20
Mist, Mostly Cloudy  
Mist, Mostly Cloudy  
   Wind: SW 1.5 m/s
Wind: SW 1.5 m/s
Temperature: 4°C
Wind Chill: 3°C
Dew Point: 3°C
Humidity: 93%
Barometer: 1027 hPa
Clouds: Mostly Cloudy
Visibility: 3 km
Cloud details: Mostly Cloudy 2800 ft
ELLX 210620Z 23003KT 210V270 3200 BR BKN028 04/03 Q1027 NOSIG
EBOS - Oostende
Updated: 21-02-2019 07:20
Mist, Partly Cloudy  
Mist, Partly Cloudy  
   Wind: SSW 3.6 m/s
Wind: SSW 3.6 m/s
Temperature: 4°C
Wind Chill: 1°C
Dew Point: 2°C
Humidity: 87%
Barometer: 1025 hPa
Clouds: Partly Cloudy
Visibility: 4 km
Cloud details: Partly Cloudy
EBOS 210620Z 20007KT 3500 BR NSC 04/02 Q1025 TEMPO 2500 BR

Script developed by  Saratoga-weather.org Adapted for the template by  Weerstation Leuven

You find our weather info also at:

Weather Underground

Equipment we use:

Weather-station
Davis Vantage Vue

Weather-program
WeatherCat

Provider
one.com

Davis Vantage Vue

WeatherCat

one.com